createdAt,value
2024-04-11T00:00:29.348Z,17.60
2024-04-11T00:02:57.496Z,17.60
2024-04-11T00:05:24.680Z,17.60
2024-04-11T00:07:51.798Z,17.60
2024-04-11T00:10:18.799Z,17.60
2024-04-11T00:12:45.856Z,17.70
2024-04-11T00:15:13.011Z,17.60
2024-04-11T00:17:40.121Z,17.60
2024-04-11T00:20:07.254Z,17.60
2024-04-11T00:22:34.405Z,17.60
2024-04-11T00:25:01.376Z,17.60
2024-04-11T00:27:29.254Z,17.60
2024-04-11T00:29:56.572Z,17.60
2024-04-11T00:32:26.429Z,17.60
2024-04-11T00:34:55.279Z,17.60
2024-04-11T00:37:27.134Z,17.60
2024-04-11T00:39:54.327Z,17.60
2024-04-11T00:42:21.391Z,17.50
2024-04-11T00:44:49.881Z,17.60
2024-04-11T00:47:17.135Z,17.50
2024-04-11T00:49:45.575Z,17.50
2024-04-11T00:52:13.108Z,17.50
2024-04-11T00:54:40.104Z,17.50
2024-04-11T00:57:10.107Z,17.50
2024-04-11T00:59:40.984Z,17.50
2024-04-11T01:02:09.519Z,17.50
2024-04-11T01:04:36.921Z,17.50
2024-04-11T01:07:16.495Z,17.50
2024-04-11T01:09:46.064Z,17.50
2024-04-11T01:12:14.919Z,17.50
2024-04-11T01:14:45.438Z,17.50
2024-04-11T01:17:15.517Z,17.50
2024-04-11T01:19:43.203Z,17.50
2024-04-11T01:22:13.782Z,17.50
2024-04-11T01:24:43.961Z,17.60
2024-04-11T01:27:12.219Z,17.50
2024-04-11T01:29:40.575Z,17.50
2024-04-11T01:32:08.229Z,17.50
2024-04-11T01:34:35.845Z,17.50
2024-04-11T01:37:03.026Z,17.50
2024-04-11T01:39:30.028Z,17.50
2024-04-11T01:41:57.186Z,17.50
2024-04-11T01:44:26.110Z,17.50
2024-04-11T01:46:54.258Z,17.50
2024-04-11T01:49:21.238Z,17.50
2024-04-11T01:51:48.485Z,17.50
2024-04-11T01:54:15.758Z,17.50
2024-04-11T01:56:42.763Z,17.50
2024-04-11T01:59:09.858Z,17.50
2024-04-11T02:01:38.758Z,17.50
2024-04-11T02:04:07.519Z,17.50
2024-04-11T02:06:38.031Z,17.50
2024-04-11T02:09:11.521Z,17.50
2024-04-11T02:11:43.100Z,17.50
2024-04-11T02:14:10.264Z,17.50
2024-04-11T02:16:38.161Z,17.50
2024-04-11T02:19:08.247Z,17.50
2024-04-11T02:21:36.165Z,17.50
2024-04-11T02:24:03.313Z,17.50
2024-04-11T02:26:34.242Z,17.50
2024-04-11T02:29:02.335Z,17.50
2024-04-11T02:31:29.374Z,17.50
2024-04-11T02:33:59.548Z,17.50
2024-04-11T02:36:31.217Z,17.40
2024-04-11T02:38:59.013Z,17.50
2024-04-11T02:41:26.296Z,17.50
2024-04-11T02:43:53.347Z,17.40
2024-04-11T02:46:20.492Z,17.50
2024-04-11T02:48:47.980Z,17.40
2024-04-11T02:51:15.868Z,17.40
2024-04-11T02:53:44.516Z,17.40
2024-04-11T02:56:13.073Z,17.50
2024-04-11T02:58:40.657Z,17.40
2024-04-11T03:01:09.143Z,17.40
2024-04-11T03:03:42.180Z,17.40
2024-04-11T03:06:22.989Z,17.40
2024-04-11T03:08:54.075Z,17.40
2024-04-11T03:11:25.559Z,17.40
2024-04-11T03:14:00.050Z,17.40
2024-04-11T03:16:29.110Z,17.40
2024-04-11T03:18:56.829Z,17.40
2024-04-11T03:21:24.178Z,17.40
2024-04-11T03:23:52.042Z,17.40
2024-04-11T03:26:19.107Z,17.40
2024-04-11T03:28:46.169Z,17.40
2024-04-11T03:31:14.983Z,17.40
2024-04-11T03:33:42.268Z,17.40
2024-04-11T03:36:14.637Z,17.40
2024-04-11T03:38:41.978Z,17.40
2024-04-11T03:41:12.454Z,17.40
2024-04-11T03:43:40.928Z,17.30
2024-04-11T03:46:20.445Z,17.40
2024-04-11T03:48:58.191Z,17.30
2024-04-11T03:51:34.939Z,17.30
2024-04-11T03:54:05.194Z,17.40
2024-04-11T03:56:32.300Z,17.40
2024-04-11T03:58:59.656Z,17.40
2024-04-11T04:01:29.010Z,17.30
2024-04-11T04:04:06.885Z,17.30
2024-04-11T04:06:36.097Z,17.30
2024-04-11T04:09:10.430Z,17.30
2024-04-11T04:11:38.690Z,17.30
2024-04-11T04:14:10.516Z,17.30
2024-04-11T04:16:40.655Z,17.30
2024-04-11T04:19:08.825Z,17.30
2024-04-11T04:21:37.105Z,17.30
2024-04-11T04:24:08.255Z,17.30
2024-04-11T04:26:36.710Z,17.30
2024-04-11T04:29:05.487Z,17.30
2024-04-11T04:31:34.017Z,17.30
2024-04-11T04:34:02.103Z,17.30
2024-04-11T04:36:33.320Z,17.20
2024-04-11T04:39:00.596Z,17.20
2024-04-11T04:41:28.924Z,17.20
2024-04-11T04:43:56.593Z,17.20
2024-04-11T04:46:24.232Z,17.30
2024-04-11T04:48:51.614Z,17.20
2024-04-11T04:51:19.975Z,17.20
2024-04-11T04:53:47.440Z,17.20
2024-04-11T04:56:14.790Z,17.20
2024-04-11T04:58:42.287Z,17.20
2024-04-11T05:01:10.204Z,17.20
2024-04-11T05:03:37.468Z,17.10
2024-04-11T05:06:04.952Z,17.20
2024-04-11T05:08:35.296Z,17.20
2024-04-11T05:11:13.383Z,17.20
2024-04-11T05:13:40.861Z,17.20
2024-04-11T05:16:08.895Z,17.20
2024-04-11T05:18:39.308Z,17.20
2024-04-11T05:21:21.110Z,17.20
2024-04-11T05:23:48.123Z,17.20
2024-04-11T05:26:24.168Z,17.20
2024-04-11T05:28:53.216Z,17.20
2024-04-11T05:31:27.397Z,17.30
2024-04-11T05:33:55.848Z,17.30
2024-04-11T05:36:26.578Z,17.30
2024-04-11T05:38:54.145Z,17.30
2024-04-11T05:41:21.390Z,17.40
2024-04-11T05:43:51.314Z,17.30
2024-04-11T05:46:23.945Z,17.40
2024-04-11T05:48:51.912Z,17.40
2024-04-11T05:51:20.552Z,17.40
2024-04-11T05:53:47.991Z,17.40
2024-04-11T05:56:15.879Z,17.40
2024-04-11T05:58:44.854Z,17.40
2024-04-11T06:01:15.493Z,17.50
2024-04-11T06:03:46.940Z,17.50
2024-04-11T06:06:14.965Z,17.50
2024-04-11T06:08:42.748Z,17.50
2024-04-11T06:11:11.161Z,17.50
2024-04-11T06:13:38.486Z,17.50
2024-04-11T06:16:07.049Z,17.50
2024-04-11T06:18:36.857Z,17.50
2024-04-11T06:21:07.988Z,17.50
2024-04-11T06:23:37.008Z,17.60
2024-04-11T06:26:04.362Z,17.60
2024-04-11T06:28:35.475Z,17.60
2024-04-11T06:31:02.615Z,17.60
2024-04-11T06:33:33.745Z,17.60
2024-04-11T06:36:01.315Z,17.60
2024-04-11T06:38:28.379Z,17.70
2024-04-11T06:40:55.450Z,17.70
2024-04-11T06:43:22.974Z,17.70
2024-04-11T06:45:53.199Z,17.70
2024-04-11T06:48:23.200Z,17.70
2024-04-11T06:50:51.864Z,17.70
2024-04-11T06:53:18.990Z,17.70
2024-04-11T06:55:47.844Z,17.70
2024-04-11T06:58:19.075Z,17.70
2024-04-11T07:00:48.098Z,17.70
2024-04-11T07:03:17.816Z,17.70
2024-04-11T07:05:57.042Z,17.70
2024-04-11T07:08:39.440Z,17.70
2024-04-11T07:11:28.759Z,17.70
2024-04-11T07:13:56.650Z,17.70
2024-04-11T07:16:27.708Z,17.80
2024-04-11T07:18:57.776Z,17.80
2024-04-11T07:21:32.039Z,17.80
2024-04-11T07:24:00.239Z,17.80
2024-04-11T07:26:31.335Z,17.80
2024-04-11T07:29:02.680Z,17.80
2024-04-11T07:31:30.351Z,17.80
2024-04-11T07:34:00.758Z,17.80
2024-04-11T07:36:28.027Z,17.80
2024-04-11T07:38:56.194Z,17.80
2024-04-11T07:41:25.780Z,17.80
2024-04-11T07:43:53.911Z,17.80
2024-04-11T07:46:23.636Z,18.10
2024-04-11T07:48:53.465Z,18.30
2024-04-11T07:51:21.084Z,18.30
2024-04-11T07:53:48.753Z,18.40
2024-04-11T07:56:16.898Z,18.40
2024-04-11T07:58:43.869Z,18.30
2024-04-11T08:01:10.850Z,18.20
2024-04-11T08:03:38.882Z,18.10
2024-04-11T08:06:09.860Z,18.30
2024-04-11T08:08:40.380Z,18.20
2024-04-11T08:11:08.571Z,18.30
2024-04-11T08:13:38.884Z,18.40
2024-04-11T08:16:10.538Z,18.50
2024-04-11T08:18:38.705Z,18.50
2024-04-11T08:21:09.533Z,18.50
2024-04-11T08:23:40.879Z,18.50
2024-04-11T08:26:08.514Z,18.60
2024-04-11T08:28:38.685Z,18.60
2024-04-11T08:31:09.668Z,18.60
2024-04-11T08:33:37.257Z,18.70
2024-04-11T08:36:05.305Z,18.60
2024-04-11T08:38:36.025Z,18.70
2024-04-11T08:41:11.193Z,18.90
2024-04-11T08:43:38.382Z,18.80
2024-04-11T08:46:09.543Z,18.80
2024-04-11T08:48:37.030Z,19.00
2024-04-11T08:51:08.327Z,19.00
2024-04-11T08:53:47.127Z,19.00
2024-04-11T08:56:23.371Z,19.10
2024-04-11T09:01:32.892Z,19.00
2024-04-11T09:04:00.019Z,18.90
2024-04-11T09:06:30.150Z,18.80
2024-04-11T09:08:59.409Z,18.90
2024-04-11T09:11:29.863Z,19.10
2024-04-11T09:14:00.496Z,19.10
2024-04-11T09:16:30.893Z,19.30
2024-04-11T09:19:10.739Z,19.20
2024-04-11T09:21:46.300Z,19.10
2024-04-11T09:24:19.783Z,19.10
2024-04-11T09:26:48.645Z,19.20
2024-04-11T09:29:21.390Z,19.10
2024-04-11T09:31:50.264Z,19.10
2024-04-11T09:34:22.402Z,19.30
2024-04-11T09:36:50.196Z,19.20
2024-04-11T09:39:43.304Z,19.10
2024-04-11T09:42:13.397Z,19.00
2024-04-11T09:44:48.729Z,18.90
2024-04-11T09:47:20.155Z,18.90
2024-04-11T09:49:55.294Z,19.10
2024-04-11T09:52:29.476Z,19.20
2024-04-11T09:55:05.922Z,19.20
2024-04-11T09:57:35.649Z,19.10
2024-04-11T10:00:11.883Z,18.90
2024-04-11T10:02:42.245Z,18.90
2024-04-11T10:05:10.044Z,18.80
2024-04-11T10:07:43.577Z,18.90
2024-04-11T10:10:27.297Z,18.90
2024-04-11T10:12:56.144Z,18.80
2024-04-11T10:15:23.909Z,19.10
2024-04-11T10:18:11.024Z,19.10
2024-04-11T10:20:39.680Z,19.10
2024-04-11T10:23:11.447Z,18.90
2024-04-11T10:25:39.579Z,18.70
2024-04-11T10:28:21.606Z,18.60
2024-04-11T10:30:52.878Z,18.50
2024-04-11T10:33:31.447Z,18.80
2024-04-11T10:35:59.476Z,18.80
2024-04-11T10:38:28.930Z,18.80
2024-04-11T10:40:57.744Z,18.70
2024-04-11T10:43:25.779Z,18.50
2024-04-11T10:45:52.816Z,18.60
2024-04-11T10:48:20.030Z,18.60
2024-04-11T10:50:49.112Z,18.70
2024-04-11T10:53:22.571Z,18.80
2024-04-11T10:55:50.771Z,18.80
2024-04-11T10:58:23.999Z,18.80
2024-04-11T11:01:04.207Z,18.60
2024-04-11T11:03:49.489Z,18.70
2024-04-11T11:06:17.118Z,18.90
2024-04-11T11:08:46.992Z,18.90
2024-04-11T11:11:16.356Z,19.00
2024-04-11T11:13:44.159Z,19.20
2024-04-11T11:16:14.410Z,19.20
2024-04-11T11:18:44.843Z,19.00
2024-04-11T11:21:17.808Z,18.80
2024-04-11T11:23:48.262Z,18.80
2024-04-11T11:26:21.894Z,19.10
2024-04-11T11:28:48.904Z,18.90
2024-04-11T11:31:22.494Z,18.80
2024-04-11T11:33:51.347Z,18.90
2024-04-11T11:36:21.471Z,19.00
2024-04-11T11:38:50.023Z,19.10
2024-04-11T11:41:17.488Z,19.10
2024-04-11T11:43:45.518Z,18.90
2024-04-11T11:46:19.221Z,19.00
2024-04-11T11:48:49.093Z,19.00
2024-04-11T11:51:16.155Z,19.00
2024-04-11T11:53:47.355Z,19.10
2024-04-11T11:56:14.427Z,19.30
2024-04-11T11:58:45.506Z,19.40
2024-04-11T12:01:30.369Z,19.50
2024-04-11T12:03:58.336Z,19.60
2024-04-11T12:06:26.417Z,19.50
2024-04-11T12:08:53.488Z,19.20
2024-04-11T12:11:23.622Z,19.00
2024-04-11T12:14:04.416Z,19.30
2024-04-11T12:16:42.453Z,19.40
2024-04-11T12:19:10.881Z,19.60
2024-04-11T12:21:46.495Z,19.60
2024-04-11T12:24:16.989Z,19.60
2024-04-11T12:26:44.719Z,19.60
2024-04-11T12:29:12.809Z,19.40
2024-04-11T12:31:40.050Z,19.10
2024-04-11T12:34:11.229Z,19.00
2024-04-11T12:36:57.597Z,19.00
2024-04-11T12:39:34.472Z,19.00
2024-04-11T12:42:02.844Z,19.10
2024-04-11T12:44:37.459Z,19.40
2024-04-11T12:47:15.730Z,19.50
2024-04-11T12:49:49.004Z,19.80
2024-04-11T12:52:31.713Z,19.90
2024-04-11T12:55:02.620Z,19.80
2024-04-11T12:57:30.515Z,19.80
2024-04-11T12:59:58.427Z,19.80
2024-04-11T13:02:25.627Z,19.80
2024-04-11T13:04:56.738Z,19.70
2024-04-11T13:07:23.894Z,19.70
2024-04-11T13:09:56.190Z,19.80
2024-04-11T13:12:30.381Z,20.00
2024-04-11T13:15:10.143Z,20.00
2024-04-11T13:17:38.251Z,20.00
2024-04-11T13:20:16.093Z,19.90
2024-04-11T13:22:43.890Z,20.00
2024-04-11T13:25:21.899Z,20.10
2024-04-11T13:27:49.825Z,20.10
2024-04-11T13:30:16.964Z,20.10
2024-04-11T13:32:57.716Z,20.20
2024-04-11T13:35:38.718Z,20.00
2024-04-11T13:38:16.345Z,19.70
2024-04-11T13:40:44.224Z,20.00
2024-04-11T13:43:11.326Z,19.80
2024-04-11T13:45:44.242Z,20.00
2024-04-11T13:48:12.003Z,20.10
2024-04-11T13:50:39.171Z,20.00
2024-04-11T13:53:06.929Z,20.10
2024-04-11T13:55:43.869Z,20.00
2024-04-11T13:58:11.451Z,19.80
2024-04-11T14:00:52.388Z,19.80
2024-04-11T14:03:26.382Z,19.70
2024-04-11T14:06:23.229Z,19.80
2024-04-11T14:08:52.580Z,19.90
2024-04-11T14:11:26.624Z,19.70
2024-04-11T14:13:56.804Z,20.00
2024-04-11T14:16:48.262Z,20.10
2024-04-11T14:19:17.537Z,20.20
2024-04-11T14:22:09.799Z,20.20
2024-04-11T14:24:37.404Z,20.40
2024-04-11T14:27:07.813Z,20.40
2024-04-11T14:29:36.225Z,20.30
2024-04-11T14:32:03.498Z,20.00
2024-04-11T14:34:49.116Z,19.90
2024-04-11T14:37:37.547Z,20.10
2024-04-11T14:40:09.135Z,20.10
2024-04-11T14:42:36.294Z,20.20
2024-04-11T14:45:08.423Z,20.10
2024-04-11T14:47:35.956Z,19.80
2024-04-11T14:50:04.930Z,19.60
2024-04-11T14:52:34.917Z,19.60
2024-04-11T14:55:02.937Z,19.50
2024-04-11T14:57:32.849Z,19.50
2024-04-11T15:00:22.697Z,19.40
2024-04-11T15:02:53.090Z,19.40
2024-04-11T15:05:20.321Z,19.60
2024-04-11T15:07:47.509Z,19.50
2024-04-11T15:10:28.167Z,19.40
2024-04-11T15:13:00.508Z,19.50
2024-04-11T15:15:27.506Z,19.50
2024-04-11T15:18:01.521Z,19.60
2024-04-11T15:20:51.060Z,19.60
2024-04-11T15:23:19.466Z,19.50
2024-04-11T15:25:46.546Z,19.50
2024-04-11T15:28:23.902Z,19.60
2024-04-11T15:30:57.025Z,19.50
2024-04-11T15:33:33.845Z,19.40
2024-04-11T15:36:23.604Z,19.50
2024-04-11T15:38:51.054Z,19.60
2024-04-11T15:41:18.079Z,19.80
2024-04-11T15:43:50.801Z,19.80
2024-04-11T15:46:21.801Z,20.00
2024-04-11T15:48:53.344Z,19.90
2024-04-11T15:51:21.326Z,19.70
2024-04-11T15:53:51.733Z,19.50
2024-04-11T15:56:36.364Z,19.40
2024-04-11T15:59:12.288Z,19.30
2024-04-11T16:01:40.518Z,19.50
2024-04-11T16:04:08.046Z,19.70
2024-04-11T16:06:47.751Z,19.90
2024-04-11T16:09:19.072Z,20.00
2024-04-11T16:11:46.891Z,20.00
2024-04-11T16:14:17.908Z,20.00
2024-04-11T16:16:53.821Z,20.10
2024-04-11T16:19:23.323Z,20.10
2024-04-11T16:21:52.655Z,20.20
2024-04-11T16:24:39.132Z,20.00
2024-04-11T16:27:06.393Z,20.10
2024-04-11T16:29:33.415Z,20.10
2024-04-11T16:32:07.291Z,20.10
2024-04-11T16:34:37.996Z,19.90
2024-04-11T16:37:07.505Z,19.70
2024-04-11T16:39:37.866Z,19.60
2024-04-11T16:42:24.769Z,19.40
2024-04-11T16:45:04.886Z,19.40
2024-04-11T16:47:41.402Z,19.40
2024-04-11T16:50:09.862Z,19.20
2024-04-11T16:52:40.241Z,19.00
2024-04-11T16:55:28.371Z,18.90
2024-04-11T16:58:12.033Z,18.80
2024-04-11T17:00:42.793Z,18.70
2024-04-11T17:03:18.017Z,18.60
2024-04-11T17:06:00.161Z,18.60
2024-04-11T17:08:28.844Z,18.50
2024-04-11T17:10:58.974Z,18.50
2024-04-11T17:13:26.829Z,18.50
2024-04-11T17:16:07.831Z,18.50
2024-04-11T17:18:54.186Z,18.50
2024-04-11T17:21:27.241Z,18.40
2024-04-11T17:24:00.370Z,18.40
2024-04-11T17:26:29.698Z,18.40
2024-04-11T17:29:04.531Z,18.40
2024-04-11T17:31:35.037Z,18.40
2024-04-11T17:34:02.932Z,18.40
2024-04-11T17:36:30.045Z,18.40
2024-04-11T17:39:00.527Z,18.30
2024-04-11T17:41:28.309Z,18.40
2024-04-11T17:43:58.481Z,18.30
2024-04-11T17:46:28.708Z,18.40
2024-04-11T17:48:58.790Z,18.40
2024-04-11T17:51:32.041Z,18.30
2024-04-11T17:53:59.760Z,18.30
2024-04-11T17:56:36.159Z,18.30
2024-04-11T17:59:04.750Z,18.30
2024-04-11T18:01:31.856Z,18.30
2024-04-11T18:04:01.596Z,18.30
2024-04-11T18:06:29.087Z,18.30
2024-04-11T18:08:59.067Z,18.20
2024-04-11T18:11:28.316Z,18.30
2024-04-11T18:13:55.784Z,18.20
2024-04-11T18:16:25.436Z,18.20
2024-04-11T18:18:52.468Z,18.20
2024-04-11T18:21:26.897Z,18.20
2024-04-11T18:23:53.984Z,18.20
2024-04-11T18:26:22.938Z,18.20
2024-04-11T18:28:51.790Z,18.20
2024-04-11T18:31:18.797Z,18.20
2024-04-11T18:33:49.492Z,18.20
2024-04-11T18:36:26.783Z,18.20
2024-04-11T18:38:54.292Z,18.20
2024-04-11T18:41:40.324Z,18.20
2024-04-11T18:44:10.052Z,18.20
2024-04-11T18:46:57.401Z,18.20
2024-04-11T18:49:29.207Z,18.20
2024-04-11T18:52:01.077Z,18.20
2024-04-11T18:54:30.407Z,18.20
2024-04-11T18:57:03.023Z,18.20
2024-04-11T18:59:36.295Z,18.10
2024-04-11T19:02:04.461Z,18.10
2024-04-11T19:04:44.485Z,18.10
2024-04-11T19:07:22.586Z,18.10
2024-04-11T19:09:59.559Z,18.10
2024-04-11T19:12:27.465Z,18.20
2024-04-11T19:15:00.275Z,18.10
2024-04-11T19:17:30.287Z,18.10
2024-04-11T19:20:01.813Z,18.10
2024-04-11T19:22:32.393Z,18.10
2024-04-11T19:25:00.593Z,18.10
2024-04-11T19:27:30.345Z,18.10
2024-04-11T19:30:01.004Z,18.10
2024-04-11T19:32:28.648Z,18.10
2024-04-11T19:34:56.033Z,18.10
2024-04-11T19:37:26.814Z,18.10
2024-04-11T19:39:58.657Z,18.10
2024-04-11T19:42:32.290Z,18.10
2024-04-11T19:45:04.877Z,18.10
2024-04-11T19:47:35.112Z,18.10
2024-04-11T19:50:07.823Z,18.10
2024-04-11T19:52:34.911Z,18.10
2024-04-11T19:55:21.997Z,18.10
2024-04-11T19:57:50.073Z,18.10
2024-04-11T20:00:47.225Z,18.10
2024-04-11T20:03:18.013Z,18.10
2024-04-11T20:06:00.865Z,18.10
2024-04-11T20:08:28.147Z,18.10
2024-04-11T20:11:01.853Z,18.10
2024-04-11T20:13:47.038Z,18.10
2024-04-11T20:16:24.209Z,18.10
2024-04-11T20:18:55.579Z,18.10
2024-04-11T20:21:27.125Z,18.10
2024-04-11T20:24:02.748Z,18.10
2024-04-11T20:26:31.860Z,18.10
2024-04-11T20:29:04.970Z,18.10
2024-04-11T20:31:35.367Z,18.10
2024-04-11T20:34:08.344Z,18.10
2024-04-11T20:36:39.470Z,18.10
2024-04-11T20:39:15.236Z,18.10
2024-04-11T20:41:52.303Z,18.10
2024-04-11T20:44:29.939Z,18.00
2024-04-11T20:47:03.102Z,18.10
2024-04-11T20:49:45.168Z,18.00
2024-04-11T20:52:31.872Z,18.10
2024-04-11T20:55:17.652Z,18.10
2024-04-11T20:58:03.381Z,18.10
2024-04-11T21:00:49.205Z,18.10
2024-04-11T21:03:35.107Z,18.10
2024-04-11T21:06:22.261Z,18.10
2024-04-11T21:09:08.289Z,18.00
2024-04-11T21:11:53.907Z,18.00
2024-04-11T21:14:39.959Z,18.00
2024-04-11T21:17:25.714Z,18.00
2024-04-11T21:20:11.533Z,18.10
2024-04-11T21:22:57.418Z,18.10
2024-04-11T21:25:43.863Z,18.00
2024-04-11T21:28:29.557Z,18.10
2024-04-11T21:31:15.412Z,18.00
2024-04-11T21:33:50.209Z,18.00
2024-04-11T21:36:23.857Z,18.10
2024-04-11T21:38:53.737Z,18.00
2024-04-11T21:41:30.635Z,18.00
2024-04-11T21:43:58.141Z,18.00
2024-04-11T21:46:41.121Z,18.10
2024-04-11T21:49:09.269Z,18.00
2024-04-11T21:51:36.589Z,18.00
2024-04-11T21:54:04.303Z,18.10
2024-04-11T21:56:34.408Z,18.10
2024-04-11T21:59:01.844Z,18.00
2024-04-11T22:01:47.648Z,18.00
2024-04-11T22:04:15.645Z,18.00
2024-04-11T22:06:57.518Z,18.00
2024-04-11T22:09:26.394Z,18.00
2024-04-11T22:12:00.978Z,18.00
2024-04-11T22:14:41.749Z,18.00
2024-04-11T22:17:16.847Z,18.00
2024-04-11T22:19:43.803Z,18.00
2024-04-11T22:22:14.866Z,18.00
2024-04-11T22:24:47.391Z,18.00
2024-04-11T22:27:15.017Z,18.00
2024-04-11T22:29:44.574Z,18.00
2024-04-11T22:32:14.472Z,18.00
2024-04-11T22:34:45.722Z,18.00
2024-04-11T22:37:24.594Z,18.00
2024-04-11T22:39:52.242Z,18.00
2024-04-11T22:42:20.910Z,18.00
2024-04-11T22:44:51.311Z,18.00
2024-04-11T22:47:18.636Z,18.00
2024-04-11T22:49:46.472Z,18.00
2024-04-11T22:52:23.468Z,18.00
2024-04-11T22:54:54.988Z,18.00
2024-04-11T22:57:23.885Z,18.00
2024-04-11T22:59:53.111Z,18.00
2024-04-11T23:02:20.486Z,18.00
2024-04-11T23:04:50.257Z,18.00
2024-04-11T23:07:35.982Z,18.00
2024-04-11T23:10:04.909Z,18.00
2024-04-11T23:12:37.999Z,18.00
2024-04-11T23:15:14.839Z,18.00
2024-04-11T23:18:03.060Z,18.00
2024-04-11T23:20:30.703Z,18.00
2024-04-11T23:23:05.365Z,18.00
2024-04-11T23:25:39.483Z,18.00
2024-04-11T23:28:07.075Z,18.00
2024-04-11T23:30:40.637Z,18.00
2024-04-11T23:33:08.565Z,18.00
2024-04-11T23:35:36.193Z,18.00
2024-04-11T23:38:07.650Z,18.00
2024-04-11T23:40:41.416Z,18.00
2024-04-11T23:43:11.825Z,17.90
2024-04-11T23:45:39.354Z,18.00
2024-04-11T23:48:07.562Z,18.00
2024-04-11T23:50:40.853Z,18.00
2024-04-11T23:53:17.623Z,17.90
2024-04-11T23:56:06.038Z,18.00
2024-04-11T23:58:33.847Z,17.90
